Terminal Aerodrome Forecast
Issued by NWS

Current Version | Previous Version | Graphics & Text | Print | Product List | Glossary Off
Versions: 1 2 3 4 5 6 7 8 9 10 11 12 13 14 15 16 17 18 19 20 21

000
FTUS41 KPBZ 250520
TAFHLG
TAF
KHLG 250520Z 2506/2606 11011KT P6SM -SHRA OVC035
     FM250700 11010KT P6SM -SHRA OVC025
     FM250900 12009KT 3SM -SHRA OVC015
     FM251400 19008KT P6SM VCSH OVC020
     FM251600 20008KT P6SM VCSH OVC035
     FM260200 22005KT P6SM -SHRA OVC008=

USA.gov is the U.S. government's official web portal to all federal, state and local government web resources and services.